Time;durP1;ratioP1;P1;durP2;ratioP2;P2;SDS_P1;SDS_P2;PMS_P1;PMS_P2;Temp;Humidity;BMP_temperature;BMP_pressure;BME280_temperature;BME280_humidity;BME280_pressure;Samples;Min_cycle;Max_cycle;Signal;HPM_P1;HPM_P2
2023/03/03 00:01:34;;;;;;;;;58.50;48.00;;;;;;;;5052860;28;45562;-54
2023/03/03 00:04:00;;;;;;;;;59.00;46.00;;;;;;;;5052735;28;45555;-56
2023/03/03 00:06:25;;;;;;;;;60.50;48.50;;;;;;;;5052658;28;45489;-57
2023/03/03 00:08:50;;;;;;;;;61.25;50.00;;;;;;;;5052658;28;45514;-55
2023/03/03 00:11:16;;;;;;;;;56.75;48.00;;;;;;;;5052907;28;45510;-55
2023/03/03 00:13:49;;;;;;;;;59.50;48.25;;;;;;;;5052697;28;45543;-54
2023/03/03 00:16:16;;;;;;;;;63.25;50.50;;;;;;;;5052688;28;46208;-55
2023/03/03 00:18:43;;;;;;;;;65.00;52.75;;;;;;;;5052626;28;45521;-58
2023/03/03 00:21:21;;;;;;;;;62.00;50.75;;;;;;;;5052767;28;45559;-54
2023/03/03 00:23:46;;;;;;;;;63.00;50.00;;;;;;;;5052296;28;45451;-59
2023/03/03 00:26:35;;;;;;;;;65.25;52.00;;;;;;;;5052577;28;45510;-59
2023/03/03 00:29:00;;;;;;;;;58.75;47.75;;;;;;;;5052279;28;45490;-56
2023/03/03 00:31:30;;;;;;;;;61.75;52.00;;;;;;;;5052652;28;45550;-58
2023/03/03 00:33:56;;;;;;;;;67.25;52.00;;;;;;;;5052631;28;45581;-57
2023/03/03 00:36:27;;;;;;;;;65.75;52.25;;;;;;;;5052225;28;46099;-59
2023/03/03 00:38:53;;;;;;;;;60.00;49.00;;;;;;;;5052516;28;45555;-56
2023/03/03 00:41:23;;;;;;;;;56.25;46.00;;;;;;;;5052325;28;45549;-55
2023/03/03 00:43:48;;;;;;;;;63.25;50.25;;;;;;;;5052471;28;45656;-58
2023/03/03 00:46:17;;;;;;;;;58.50;47.25;;;;;;;;5055594;28;45560;-57
2023/03/03 00:48:43;;;;;;;;;55.75;44.75;;;;;;;;5055837;28;45570;-53
2023/03/03 00:51:23;;;;;;;;;61.50;47.00;;;;;;;;5055906;28;45581;-54
2023/03/03 00:53:49;;;;;;;;;61.50;49.75;;;;;;;;5056016;28;45439;-60
2023/03/03 00:56:14;;;;;;;;;58.50;48.00;;;;;;;;5055747;28;45946;-59
2023/03/03 00:58:39;;;;;;;;;54.75;43.25;;;;;;;;5055062;28;45691;-55
2023/03/03 01:01:05;;;;;;;;;57.50;47.75;;;;;;;;5055774;28;45497;-56
2023/03/03 01:03:30;;;;;;;;;64.50;50.50;;;;;;;;5055554;28;45498;-59
2023/03/03 01:05:56;;;;;;;;;61.75;46.50;;;;;;;;5055636;28;45459;-56
2023/03/03 01:08:21;;;;;;;;;57.00;46.75;;;;;;;;5055548;28;45491;-55
2023/03/03 01:10:51;;;;;;;;;55.25;44.25;;;;;;;;5055592;28;45598;-56
2023/03/03 01:13:16;;;;;;;;;57.75;45.25;;;;;;;;5055674;28;45376;-55
2023/03/03 01:15:42;;;;;;;;;56.50;49.00;;;;;;;;5055094;28;45535;-56
2023/03/03 01:18:08;;;;;;;;;56.75;45.50;;;;;;;;5055534;28;45726;-54
2023/03/03 01:20:33;;;;;;;;;57.50;46.75;;;;;;;;5055270;28;45452;-51
2023/03/03 01:22:58;;;;;;;;;61.00;50.00;;;;;;;;5055534;28;45603;-60
2023/03/03 01:25:23;;;;;;;;;56.00;45.50;;;;;;;;5055343;28;45411;-57
2023/03/03 01:27:49;;;;;;;;;57.00;46.00;;;;;;;;5054993;28;45466;-58
2023/03/03 01:30:14;;;;;;;;;56.50;47.75;;;;;;;;5055436;28;45510;-56
2023/03/03 01:32:39;;;;;;;;;56.50;46.50;;;;;;;;5055092;28;45656;-53
2023/03/03 01:35:05;;;;;;;;;58.25;47.75;;;;;;;;5055029;28;45556;-59
2023/03/03 01:37:30;;;;;;;;;55.75;46.50;;;;;;;;5055090;28;45485;-57
2023/03/03 01:39:55;;;;;;;;;61.00;46.25;;;;;;;;5055172;28;45639;-57
2023/03/03 01:42:20;;;;;;;;;57.25;45.25;;;;;;;;5055288;28;45533;-56
2023/03/03 01:44:46;;;;;;;;;61.25;48.00;;;;;;;;5054703;28;45923;-55
2023/03/03 01:47:16;;;;;;;;;59.50;49.50;;;;;;;;5054978;28;45631;-57
2023/03/03 01:49:49;;;;;;;;;54.00;43.25;;;;;;;;5054912;28;45552;-56
2023/03/03 01:52:26;;;;;;;;;54.75;45.25;;;;;;;;5055125;28;45497;-56
2023/03/03 01:54:54;;;;;;;;;52.75;45.25;;;;;;;;5054479;28;45528;-58
2023/03/03 01:57:26;;;;;;;;;55.00;44.50;;;;;;;;5054961;28;45505;-57
2023/03/03 01:59:52;;;;;;;;;52.50;43.00;;;;;;;;5054965;28;45581;-56
2023/03/03 02:02:17;;;;;;;;;56.75;46.00;;;;;;;;5054887;28;45605;-56
2023/03/03 02:04:43;;;;;;;;;57.00;46.75;;;;;;;;5054810;28;45499;-57
2023/03/03 02:07:10;;;;;;;;;61.75;49.25;;;;;;;;5054762;28;45574;-58
2023/03/03 02:09:35;;;;;;;;;59.00;47.75;;;;;;;;5055007;28;46188;-58
2023/03/03 02:12:03;;;;;;;;;56.25;47.25;;;;;;;;5054712;28;45618;-61
2023/03/03 02:14:29;;;;;;;;;55.75;47.25;;;;;;;;5054544;28;45573;-59
2023/03/03 02:16:54;;;;;;;;;60.00;49.25;;;;;;;;5054358;28;45418;-59
2023/03/03 02:19:22;;;;;;;;;60.50;49.00;;;;;;;;5054665;28;45493;-59
2023/03/03 02:21:48;;;;;;;;;63.75;49.25;;;;;;;;5036456;28;45542;-51
2023/03/03 02:24:19;;;;;;;;;59.50;47.25;;;;;;;;5054175;28;46221;-56
2023/03/03 02:26:45;;;;;;;;;64.25;50.75;;;;;;;;5054397;28;45598;-54
2023/03/03 02:29:10;;;;;;;;;60.75;49.25;;;;;;;;5054045;28;46761;-56
2023/03/03 02:31:37;;;;;;;;;56.50;47.25;;;;;;;;5054164;28;45621;-53
2023/03/03 02:34:02;;;;;;;;;56.25;47.00;;;;;;;;5053820;28;46045;-54
2023/03/03 02:36:29;;;;;;;;;57.50;47.50;;;;;;;;5054126;28;45489;-53
2023/03/03 02:39:06;;;;;;;;;54.25;46.00;;;;;;;;5054242;28;45476;-56
2023/03/03 02:41:48;;;;;;;;;56.25;45.75;;;;;;;;5040656;28;45659;-55
2023/03/03 02:44:15;;;;;;;;;66.25;53.00;;;;;;;;5053921;28;45769;-52
2023/03/03 02:46:41;;;;;;;;;62.00;52.00;;;;;;;;5053989;28;45509;-57
2023/03/03 02:49:07;;;;;;;;;64.00;49.75;;;;;;;;5054172;28;45592;-57
2023/03/03 02:51:33;;;;;;;;;58.50;47.25;;;;;;;;5053699;28;45543;-57
2023/03/03 02:53:58;;;;;;;;;57.25;46.50;;;;;;;;5053764;28;46217;-55
2023/03/03 02:56:23;;;;;;;;;60.00;49.50;;;;;;;;5053460;28;45515;-53
2023/03/03 02:58:48;;;;;;;;;62.25;46.75;;;;;;;;5053446;28;45463;-57
2023/03/03 03:01:15;;;;;;;;;56.75;47.25;;;;;;;;5053671;28;46040;-55
2023/03/03 03:03:40;;;;;;;;;60.00;49.00;;;;;;;;5053417;28;46366;-54
2023/03/03 03:06:06;;;;;;;;;62.00;48.25;;;;;;;;5053675;28;45512;-54
2023/03/03 03:08:31;;;;;;;;;55.50;46.00;;;;;;;;5052583;28;45481;-54
2023/03/03 03:10:56;;;;;;;;;55.50;44.00;;;;;;;;5053720;28;45398;-56
2023/03/03 03:13:22;;;;;;;;;56.00;46.50;;;;;;;;5053421;28;45896;-56
2023/03/03 03:15:48;;;;;;;;;57.75;47.50;;;;;;;;5053054;28;45945;-57
2023/03/03 03:18:13;;;;;;;;;54.75;46.25;;;;;;;;5053760;28;45430;-55
2023/03/03 03:20:40;;;;;;;;;57.25;47.25;;;;;;;;5052504;28;45554;-55
2023/03/03 03:23:05;;;;;;;;;63.00;52.25;;;;;;;;5053321;28;45613;-56
2023/03/03 03:25:31;;;;;;;;;58.00;48.50;;;;;;;;5053209;28;45481;-56
2023/03/03 03:27:56;;;;;;;;;60.25;48.50;;;;;;;;5052532;28;45574;-58
2023/03/03 03:30:21;;;;;;;;;60.25;49.25;;;;;;;;5053162;28;45527;-55
2023/03/03 03:32:47;;;;;;;;;55.75;47.75;;;;;;;;5053126;28;46681;-55
2023/03/03 03:35:12;;;;;;;;;65.00;49.50;;;;;;;;5053008;28;45443;-55
2023/03/03 03:37:37;;;;;;;;;57.50;47.00;;;;;;;;5053302;28;45616;-57
2023/03/03 03:40:03;;;;;;;;;59.00;49.00;;;;;;;;5053246;28;45469;-56
2023/03/03 03:42:28;;;;;;;;;56.00;46.75;;;;;;;;5053068;28;47361;-60
2023/03/03 03:44:53;;;;;;;;;61.25;47.75;;;;;;;;5052847;28;45418;-53
2023/03/03 03:47:18;;;;;;;;;56.50;48.25;;;;;;;;5035542;28;45400;-54
2023/03/03 03:49:43;;;;;;;;;54.00;45.00;;;;;;;;5053310;28;45610;-57
2023/03/03 03:52:09;;;;;;;;;61.50;51.00;;;;;;;;5052736;28;46101;-54
2023/03/03 03:54:34;;;;;;;;;51.50;43.50;;;;;;;;5052912;28;45506;-56
2023/03/03 03:56:59;;;;;;;;;59.50;49.00;;;;;;;;5053020;28;45582;-58
2023/03/03 03:59:24;;;;;;;;;58.75;47.50;;;;;;;;5053125;28;45439;-58
2023/03/03 04:01:49;;;;;;;;;62.50;49.00;;;;;;;;5052838;28;45994;-55
2023/03/03 04:04:15;;;;;;;;;56.25;47.50;;;;;;;;5034978;28;45608;-57
2023/03/03 04:06:40;;;;;;;;;62.50;49.00;;;;;;;;5053121;28;45353;-58
2023/03/03 04:09:06;;;;;;;;;61.25;49.00;;;;;;;;5053013;28;45665;-55
2023/03/03 04:11:31;;;;;;;;;56.75;46.00;;;;;;;;5052783;28;46129;-56
2023/03/03 04:13:56;;;;;;;;;55.25;46.25;;;;;;;;5052760;28;45531;-56
2023/03/03 04:16:21;;;;;;;;;57.00;48.25;;;;;;;;5052982;28;45391;-54
2023/03/03 04:18:47;;;;;;;;;58.75;48.25;;;;;;;;5052995;28;45659;-56
2023/03/03 04:21:13;;;;;;;;;56.75;48.25;;;;;;;;5052454;28;46241;-55
2023/03/03 04:23:38;;;;;;;;;62.50;51.50;;;;;;;;5052659;28;45609;-57
2023/03/03 04:26:03;;;;;;;;;57.50;48.00;;;;;;;;5052463;28;46025;-57
2023/03/03 04:28:28;;;;;;;;;56.00;46.75;;;;;;;;5052366;28;45478;-59
2023/03/03 04:30:54;;;;;;;;;60.00;49.00;;;;;;;;5052529;28;46230;-59
2023/03/03 04:33:19;;;;;;;;;60.00;49.00;;;;;;;;5052284;28;45448;-53
2023/03/03 04:35:44;;;;;;;;;61.50;49.75;;;;;;;;5052560;28;45352;-57
2023/03/03 04:38:09;;;;;;;;;58.25;49.50;;;;;;;;5052497;28;45484;-53
2023/03/03 04:40:34;;;;;;;;;59.25;49.50;;;;;;;;5052351;28;46213;-57
2023/03/03 04:43:00;;;;;;;;;63.00;49.75;;;;;;;;5052537;28;45706;-58
2023/03/03 04:45:25;;;;;;;;;67.75;51.75;;;;;;;;5052652;28;45569;-58
2023/03/03 04:47:50;;;;;;;;;65.00;53.00;;;;;;;;5052527;28;45474;-56
2023/03/03 04:50:15;;;;;;;;;62.75;51.50;;;;;;;;5051960;28;45530;-59
2023/03/03 04:52:40;;;;;;;;;64.75;51.00;;;;;;;;5052441;28;45618;-59
2023/03/03 04:55:06;;;;;;;;;56.00;44.00;;;;;;;;5052057;28;45544;-57
2023/03/03 04:57:31;;;;;;;;;62.75;52.75;;;;;;;;5052110;28;45447;-58
2023/03/03 04:59:56;;;;;;;;;65.75;52.25;;;;;;;;5051883;28;46335;-57
2023/03/03 05:02:21;;;;;;;;;67.25;52.25;;;;;;;;5052275;28;45438;-55
2023/03/03 05:04:47;;;;;;;;;70.75;57.25;;;;;;;;5052349;28;45506;-57
2023/03/03 05:07:12;;;;;;;;;61.00;47.00;;;;;;;;5052221;28;45585;-56
2023/03/03 05:09:37;;;;;;;;;61.25;51.00;;;;;;;;5052020;28;45484;-54
2023/03/03 05:12:02;;;;;;;;;63.00;50.50;;;;;;;;5051968;28;45470;-55
2023/03/03 05:14:28;;;;;;;;;64.75;53.25;;;;;;;;5052040;28;45509;-58
2023/03/03 05:16:53;;;;;;;;;64.00;52.00;;;;;;;;5051983;28;45520;-56
2023/03/03 05:19:18;;;;;;;;;70.75;54.25;;;;;;;;5051870;28;46032;-53
2023/03/03 05:21:43;;;;;;;;;65.25;52.50;;;;;;;;5052186;28;45399;-56
2023/03/03 05:24:09;;;;;;;;;65.75;53.50;;;;;;;;5052048;28;45537;-60
2023/03/03 05:26:35;;;;;;;;;64.25;51.25;;;;;;;;5052151;28;45583;-59
2023/03/03 05:29:00;;;;;;;;;69.50;54.00;;;;;;;;5051202;28;45479;-53
2023/03/03 05:31:26;;;;;;;;;63.00;51.25;;;;;;;;5036018;28;45562;-59
2023/03/03 05:33:51;;;;;;;;;62.25;51.25;;;;;;;;5055375;28;45526;-59
2023/03/03 05:36:16;;;;;;;;;67.50;53.00;;;;;;;;5054990;28;45418;-57
2023/03/03 05:38:41;;;;;;;;;65.00;52.00;;;;;;;;5055240;28;45467;-56
2023/03/03 05:41:07;;;;;;;;;63.25;52.50;;;;;;;;5055213;28;45535;-56
2023/03/03 05:43:32;;;;;;;;;65.25;53.25;;;;;;;;5037335;28;45458;-54
2023/03/03 05:45:57;;;;;;;;;70.00;54.25;;;;;;;;5054997;28;45664;-54
2023/03/03 05:48:23;;;;;;;;;67.75;51.75;;;;;;;;5054765;28;46106;-56
2023/03/03 05:50:48;;;;;;;;;69.50;57.00;;;;;;;;5054998;28;45513;-52
2023/03/03 05:53:13;;;;;;;;;69.25;52.25;;;;;;;;5054849;28;45562;-60
2023/03/03 05:55:38;;;;;;;;;69.25;53.75;;;;;;;;5054814;28;45548;-56
2023/03/03 05:58:03;;;;;;;;;68.50;52.75;;;;;;;;5054698;28;45539;-59
2023/03/03 06:00:28;;;;;;;;;60.25;51.75;;;;;;;;5054660;28;45684;-57
2023/03/03 06:02:54;;;;;;;;;61.50;50.00;;;;;;;;5054905;28;45575;-58
2023/03/03 06:05:19;;;;;;;;;63.00;51.00;;;;;;;;5054783;28;45565;-57
2023/03/03 06:07:44;;;;;;;;;63.25;52.00;;;;;;;;5054398;28;46169;-58
2023/03/03 06:10:09;;;;;;;;;62.50;52.00;;;;;;;;5054423;28;45613;-53
2023/03/03 06:12:36;;;;;;;;;61.75;49.50;;;;;;;;5054949;28;45536;-57
2023/03/03 06:15:01;;;;;;;;;64.50;51.50;;;;;;;;5054676;28;45548;-58
2023/03/03 06:17:26;;;;;;;;;67.00;51.75;;;;;;;;5054263;28;46256;-57
2023/03/03 06:19:51;;;;;;;;;65.00;53.25;;;;;;;;5054514;28;45479;-56
2023/03/03 06:22:16;;;;;;;;;55.25;44.50;;;;;;;;5054420;28;45590;-56
2023/03/03 06:24:42;;;;;;;;;63.25;51.75;;;;;;;;5054593;28;45630;-60
2023/03/03 06:27:08;;;;;;;;;64.75;52.50;;;;;;;;5054144;28;45532;-56
2023/03/03 06:29:33;;;;;;;;;65.75;52.50;;;;;;;;5054165;28;45508;-59
2023/03/03 06:31:58;;;;;;;;;63.75;52.75;;;;;;;;5054270;28;45515;-53
2023/03/03 06:34:24;;;;;;;;;67.50;53.50;;;;;;;;5054141;28;45640;-57
2023/03/03 06:36:49;;;;;;;;;65.50;53.00;;;;;;;;5054085;28;46126;-51
2023/03/03 06:39:14;;;;;;;;;71.00;55.00;;;;;;;;5054200;28;45469;-57
2023/03/03 06:41:39;;;;;;;;;70.00;56.25;;;;;;;;5053055;28;45482;-57
2023/03/03 06:44:05;;;;;;;;;67.50;54.50;;;;;;;;5054209;28;46133;-58
2023/03/03 06:46:30;;;;;;;;;71.75;56.00;;;;;;;;5053860;28;46236;-55
2023/03/03 06:48:55;;;;;;;;;69.00;56.75;;;;;;;;5053816;28;45458;-54
2023/03/03 06:51:27;;;;;;;;;69.25;54.00;;;;;;;;5053873;28;45423;-56
2023/03/03 06:53:56;;;;;;;;;69.75;56.25;;;;;;;;5054124;28;45427;-55
2023/03/03 06:56:25;;;;;;;;;72.75;57.50;;;;;;;;5053722;28;45647;-52
2023/03/03 06:58:57;;;;;;;;;69.25;58.00;;;;;;;;5035864;28;45523;-56
2023/03/03 07:01:23;;;;;;;;;69.75;56.25;;;;;;;;5054032;28;45534;-51
2023/03/03 07:03:49;;;;;;;;;71.25;59.25;;;;;;;;5053556;28;45510;-56
2023/03/03 07:06:25;;;;;;;;;70.75;57.25;;;;;;;;5053697;28;45537;-53
2023/03/03 07:08:51;;;;;;;;;71.25;58.50;;;;;;;;5053559;28;45606;-58
2023/03/03 07:11:18;;;;;;;;;78.00;60.50;;;;;;;;5053852;28;45485;-57
2023/03/03 07:13:45;;;;;;;;;77.00;61.50;;;;;;;;5052451;28;45522;-57
2023/03/03 07:16:11;;;;;;;;;75.25;59.00;;;;;;;;5053385;28;46226;-55
2023/03/03 07:18:51;;;;;;;;;71.25;56.25;;;;;;;;5035120;28;45460;-57
2023/03/03 07:21:30;;;;;;;;;77.50;61.25;;;;;;;;5053735;28;45501;-56
2023/03/03 07:23:56;;;;;;;;;76.00;59.50;;;;;;;;5053589;28;46117;-54
2023/03/03 07:26:27;;;;;;;;;75.00;59.75;;;;;;;;5053280;28;45523;-56
2023/03/03 07:28:54;;;;;;;;;68.50;55.75;;;;;;;;5053296;28;45556;-53
2023/03/03 07:31:39;;;;;;;;;72.75;56.00;;;;;;;;5053228;28;45535;-56
2023/03/03 07:34:14;;;;;;;;;73.25;57.75;;;;;;;;5053463;28;45516;-55
2023/03/03 07:36:39;;;;;;;;;69.75;57.00;;;;;;;;5052856;28;45540;-56
2023/03/03 07:39:28;;;;;;;;;70.75;57.75;;;;;;;;5053288;28;45500;-57
2023/03/03 07:41:58;;;;;;;;;76.00;58.50;;;;;;;;5044717;28;45534;-53
2023/03/03 07:44:28;;;;;;;;;76.25;61.25;;;;;;;;5035106;28;45418;-58
2023/03/03 07:46:53;;;;;;;;;73.75;59.25;;;;;;;;5052589;28;46341;-57
2023/03/03 07:49:21;;;;;;;;;72.50;58.00;;;;;;;;5035250;28;45416;-58
2023/03/03 07:51:51;;;;;;;;;76.00;60.75;;;;;;;;5052972;28;45518;-55
2023/03/03 07:54:27;;;;;;;;;71.50;58.25;;;;;;;;5053004;28;45587;-54
2023/03/03 07:56:54;;;;;;;;;74.75;59.00;;;;;;;;5052872;28;47249;-57
2023/03/03 07:59:25;;;;;;;;;75.25;59.75;;;;;;;;5034799;28;45493;-52
2023/03/03 08:02:00;;;;;;;;;76.25;60.75;;;;;;;;5052771;28;45400;-56
2023/03/03 08:04:36;;;;;;;;;79.00;61.00;;;;;;;;5034793;28;45431;-57
2023/03/03 08:07:02;;;;;;;;;77.75;60.50;;;;;;;;5052713;28;45544;-55
2023/03/03 08:09:35;;;;;;;;;77.75;60.25;;;;;;;;5052540;28;45518;-54
2023/03/03 08:12:06;;;;;;;;;80.25;61.50;;;;;;;;5052751;28;45666;-58
2023/03/03 08:14:36;;;;;;;;;73.00;59.00;;;;;;;;5052663;28;45459;-56
2023/03/03 08:17:06;;;;;;;;;77.25;59.00;;;;;;;;5052273;28;45566;-52
2023/03/03 08:19:32;;;;;;;;;78.00;60.25;;;;;;;;5052463;28;45574;-58
2023/03/03 08:22:02;;;;;;;;;78.00;61.00;;;;;;;;5052463;28;45435;-55
2023/03/03 08:24:27;;;;;;;;;76.00;61.00;;;;;;;;5052639;28;45451;-55
2023/03/03 08:26:52;;;;;;;;;75.50;59.75;;;;;;;;5052390;28;46096;-55
2023/03/03 08:29:18;;;;;;;;;76.25;60.50;;;;;;;;5051914;28;45629;-57
2023/03/03 08:31:43;;;;;;;;;79.50;60.25;;;;;;;;5052250;28;45886;-55
2023/03/03 08:34:08;;;;;;;;;76.75;61.00;;;;;;;;5052493;28;45597;-52
2023/03/03 08:36:33;;;;;;;;;75.75;60.00;;;;;;;;5051907;28;45396;-56
2023/03/03 08:38:59;;;;;;;;;79.00;61.00;;;;;;;;5052093;28;45744;-54
2023/03/03 08:41:24;;;;;;;;;76.50;59.75;;;;;;;;5052169;28;45541;-55
2023/03/03 08:43:49;;;;;;;;;74.00;58.50;;;;;;;;5052480;28;45478;-56
2023/03/03 08:46:15;;;;;;;;;77.00;61.50;;;;;;;;5052079;28;46187;-55
2023/03/03 08:48:40;;;;;;;;;81.00;62.75;;;;;;;;5051792;28;45502;-52
2023/03/03 08:51:06;;;;;;;;;77.25;60.00;;;;;;;;5034168;28;45396;-52
2023/03/03 08:53:33;;;;;;;;;72.50;57.50;;;;;;;;5052154;28;45562;-53
2023/03/03 08:55:58;;;;;;;;;80.00;61.50;;;;;;;;5052050;28;45504;-56
2023/03/03 08:58:23;;;;;;;;;75.50;60.00;;;;;;;;5052116;28;45521;-51
2023/03/03 09:00:48;;;;;;;;;77.75;61.00;;;;;;;;5052322;28;45489;-56
2023/03/03 09:03:14;;;;;;;;;75.25;60.50;;;;;;;;5052264;28;45448;-56
2023/03/03 09:05:41;;;;;;;;;81.00;63.75;;;;;;;;5053278;28;45459;-56
2023/03/03 09:08:07;;;;;;;;;80.25;61.00;;;;;;;;5055789;28;45536;-55
2023/03/03 09:10:34;;;;;;;;;77.00;61.50;;;;;;;;5055643;28;45480;-57
2023/03/03 09:13:03;;;;;;;;;77.75;61.00;;;;;;;;5055748;28;45512;-55
2023/03/03 09:15:29;;;;;;;;;77.00;60.25;;;;;;;;5055110;28;46649;-54
2023/03/03 09:18:17;;;;;;;;;73.75;58.75;;;;;;;;5055355;28;45514;-57
2023/03/03 09:20:44;;;;;;;;;76.50;59.75;;;;;;;;5046849;28;45479;-55
2023/03/03 09:23:24;;;;;;;;;77.75;60.25;;;;;;;;5055247;28;45477;-55
2023/03/03 09:25:50;;;;;;;;;76.00;56.50;;;;;;;;5055178;28;45502;-52
2023/03/03 09:28:23;;;;;;;;;71.00;56.00;;;;;;;;5055049;28;45497;-58
2023/03/03 09:30:48;;;;;;;;;76.50;60.25;;;;;;;;5055377;28;45558;-57
2023/03/03 09:33:20;;;;;;;;;78.50;60.75;;;;;;;;5055041;28;45565;-55
2023/03/03 09:35:47;;;;;;;;;70.50;56.25;;;;;;;;5055037;28;45860;-55
2023/03/03 09:38:29;;;;;;;;;75.25;60.25;;;;;;;;5054908;28;45581;-54
2023/03/03 09:41:09;;;;;;;;;75.00;58.50;;;;;;;;5037091;28;45484;-56
2023/03/03 09:43:38;;;;;;;;;75.00;58.00;;;;;;;;5041237;28;45493;-57
2023/03/03 09:46:06;;;;;;;;;73.00;58.25;;;;;;;;5036647;28;45555;-55
2023/03/03 09:48:45;;;;;;;;;72.00;54.00;;;;;;;;5036664;28;45436;-56
2023/03/03 09:51:14;;;;;;;;;64.75;51.00;;;;;;;;5037039;28;45439;-58
2023/03/03 09:54:03;;;;;;;;;68.25;56.25;;;;;;;;5054975;28;45487;-58
2023/03/03 09:56:41;;;;;;;;;76.00;59.00;;;;;;;;5054507;28;45496;-56
2023/03/03 09:59:15;;;;;;;;;75.25;56.50;;;;;;;;5054994;28;45568;-59
2023/03/03 10:01:49;;;;;;;;;71.75;54.50;;;;;;;;5054875;28;45437;-51
2023/03/03 10:04:14;;;;;;;;;70.00;56.25;;;;;;;;5054927;28;45670;-56
2023/03/03 10:06:43;;;;;;;;;72.40;56.60;;;;;;;;5054743;28;45534;-55
2023/03/03 10:09:27;;;;;;;;;72.25;57.50;;;;;;;;5054825;28;45438;-55
2023/03/03 10:12:15;;;;;;;;;68.00;55.00;;;;;;;;5036411;28;45508;-60
2023/03/03 10:14:59;;;;;;;;;73.50;57.75;;;;;;;;5054700;28;45593;-58
2023/03/03 10:17:36;;;;;;;;;65.75;54.50;;;;;;;;5054106;28;46325;-59
2023/03/03 10:20:11;;;;;;;;;71.00;53.25;;;;;;;;5054560;28;45502;-56
2023/03/03 10:22:59;;;;;;;;;75.00;58.00;;;;;;;;5054312;28;45619;-53
2023/03/03 10:25:37;;;;;;;;;75.50;57.00;;;;;;;;5054632;28;45620;-55
2023/03/03 10:28:06;;;;;;;;;66.75;54.50;;;;;;;;5054124;28;45592;-56
2023/03/03 10:30:32;;;;;;;;;73.00;56.00;;;;;;;;5054260;28;45537;-60
2023/03/03 10:33:00;;;;;;;;;66.00;53.75;;;;;;;;5036412;28;45518;-53
2023/03/03 10:35:25;;;;;;;;;69.25;54.25;;;;;;;;5054087;28;45483;-50
2023/03/03 10:38:00;;;;;;;;;65.50;53.75;;;;;;;;5053789;28;45436;-57
2023/03/03 10:40:31;;;;;;;;;72.50;55.50;;;;;;;;5054247;28;45588;-60
2023/03/03 10:42:56;;;;;;;;;71.50;56.25;;;;;;;;5054276;28;45516;-55
2023/03/03 10:45:39;;;;;;;;;68.25;54.75;;;;;;;;5054381;28;45635;-58
2023/03/03 10:48:10;;;;;;;;;67.75;51.00;;;;;;;;5053733;28;46381;-55
2023/03/03 10:50:48;;;;;;;;;65.00;52.75;;;;;;;;5053957;28;45532;-55
2023/03/03 10:53:31;;;;;;;;;68.75;55.25;;;;;;;;5054158;28;45613;-57
2023/03/03 10:56:09;;;;;;;;;76.00;59.75;;;;;;;;5053841;28;45515;-57
2023/03/03 10:58:38;;;;;;;;;67.00;52.00;;;;;;;;5053475;28;46213;-56
2023/03/03 11:01:03;;;;;;;;;69.00;55.25;;;;;;;;5053639;28;45464;-57
2023/03/03 11:03:48;;;;;;;;;66.00;53.75;;;;;;;;5053887;28;45450;-49
2023/03/03 11:06:19;;;;;;;;;66.50;53.00;;;;;;;;5054031;28;45470;-52
2023/03/03 11:08:47;;;;;;;;;66.00;50.50;;;;;;;;5053458;28;45564;-56
2023/03/03 11:11:19;;;;;;;;;66.75;52.25;;;;;;;;5053733;28;45513;-56
2023/03/03 11:13:52;;;;;;;;;66.00;52.75;;;;;;;;5053616;28;45501;-53
2023/03/03 11:16:27;;;;;;;;;67.50;54.00;;;;;;;;5053458;28;46320;-55
2023/03/03 11:19:02;;;;;;;;;67.00;52.25;;;;;;;;5053191;28;45529;-54
2023/03/03 11:21:38;;;;;;;;;68.50;53.00;;;;;;;;5053650;28;45694;-54
2023/03/03 11:24:04;;;;;;;;;69.00;53.00;;;;;;;;5053541;28;45558;-57
2023/03/03 11:26:29;;;;;;;;;63.50;51.75;;;;;;;;5053434;28;45548;-55
2023/03/03 11:29:16;;;;;;;;;67.75;55.25;;;;;;;;5052327;28;45427;-58
2023/03/03 11:31:47;;;;;;;;;64.75;52.75;;;;;;;;5053450;28;45501;-56
2023/03/03 11:34:15;;;;;;;;;64.50;51.50;;;;;;;;5053394;28;45435;-59
2023/03/03 11:36:49;;;;;;;;;69.00;54.50;;;;;;;;5052894;28;45509;-57
2023/03/03 11:39:16;;;;;;;;;65.75;51.50;;;;;;;;5053053;28;45630;-58
2023/03/03 11:42:00;;;;;;;;;64.75;53.00;;;;;;;;5052880;28;45673;-58
2023/03/03 11:44:28;;;;;;;;;63.00;52.25;;;;;;;;5053381;28;45473;-52
2023/03/03 11:46:56;;;;;;;;;68.75;54.00;;;;;;;;5053128;28;45555;-56
2023/03/03 11:49:32;;;;;;;;;67.00;52.50;;;;;;;;5052757;28;47184;-56
2023/03/03 11:52:15;;;;;;;;;66.00;52.50;;;;;;;;5052527;28;45491;-58
2023/03/03 11:54:40;;;;;;;;;70.50;56.75;;;;;;;;5053077;28;45531;-55
2023/03/03 11:57:09;;;;;;;;;63.75;49.50;;;;;;;;5052524;28;45458;-53
2023/03/03 11:59:38;;;;;;;;;65.50;51.00;;;;;;;;5052578;28;45500;-57
2023/03/03 12:02:03;;;;;;;;;69.75;54.50;;;;;;;;5052206;28;45459;-55
2023/03/03 12:04:39;;;;;;;;;63.80;50.80;;;;;;;;5052887;28;45469;-56
2023/03/03 12:07:04;;;;;;;;;62.25;51.00;;;;;;;;5052592;28;45539;-56
2023/03/03 12:09:36;;;;;;;;;65.00;50.75;;;;;;;;5052560;28;45513;-54
2023/03/03 12:12:10;;;;;;;;;60.25;49.75;;;;;;;;5052210;28;45531;-53
2023/03/03 12:14:38;;;;;;;;;58.50;47.25;;;;;;;;5052671;28;45536;-56
2023/03/03 12:17:08;;;;;;;;;63.00;48.75;;;;;;;;5052447;28;45518;-58
2023/03/03 12:19:37;;;;;;;;;37.00;32.50;;;;;;;;5052077;28;47348;-52
2023/03/03 12:22:05;;;;;;;;;54.00;43.75;;;;;;;;5052377;28;45618;-54
2023/03/03 12:24:37;;;;;;;;;59.00;49.25;;;;;;;;5052456;28;45461;-53
2023/03/03 12:27:02;;;;;;;;;58.00;46.50;;;;;;;;5052367;28;45520;-55
2023/03/03 12:29:49;;;;;;;;;53.75;46.00;;;;;;;;5052083;28;45596;-56
2023/03/03 12:32:15;;;;;;;;;66.25;47.50;;;;;;;;5042237;28;45470;-52
2023/03/03 12:34:43;;;;;;;;;58.00;46.00;;;;;;;;5052944;28;45606;-52
2023/03/03 12:37:34;;;;;;;;;59.25;47.50;;;;;;;;5052598;28;45470;-53
2023/03/03 12:40:08;;;;;;;;;57.25;46.75;;;;;;;;5049307;28;45484;-52
2023/03/03 12:42:51;;;;;;;;;47.25;40.25;;;;;;;;5056108;28;45529;-56
2023/03/03 12:45:32;;;;;;;;;59.25;46.00;;;;;;;;5042185;28;45554;-57
2023/03/03 12:47:57;;;;;;;;;59.25;48.25;;;;;;;;5055761;28;45582;-57
2023/03/03 12:50:41;;;;;;;;;55.80;46.00;;;;;;;;5056118;28;46844;-60
2023/03/03 12:53:09;;;;;;;;;52.00;44.50;;;;;;;;5055844;28;45463;-59
2023/03/03 12:55:46;;;;;;;;;52.00;43.00;;;;;;;;5056036;28;45629;-57
2023/03/03 12:58:30;;;;;;;;;47.75;42.00;;;;;;;;5055727;28;45646;-57
2023/03/03 13:01:13;;;;;;;;;47.00;39.00;;;;;;;;5055664;28;45526;-56
2023/03/03 13:03:58;;;;;;;;;38.25;34.25;;;;;;;;5055531;28;45515;-58
2023/03/03 13:06:38;;;;;;;;;50.50;41.25;;;;;;;;5055767;28;45545;-53
2023/03/03 13:09:10;;;;;;;;;48.75;39.25;;;;;;;;5055535;28;45500;-55
2023/03/03 13:11:38;;;;;;;;;52.50;42.50;;;;;;;;5055290;28;46238;-58
2023/03/03 13:14:14;;;;;;;;;46.00;40.00;;;;;;;;5055259;28;45554;-57
2023/03/03 13:17:00;;;;;;;;;45.50;38.00;;;;;;;;5055442;28;45478;-59
2023/03/03 13:19:30;;;;;;;;;0.75;0.00;;;;;;;;5023846;28;45602;-52
2023/03/03 13:22:00;;;;;;;;;53.75;42.00;;;;;;;;5055220;28;45555;-54
2023/03/03 13:24:32;;;;;;;;;45.00;38.50;;;;;;;;5055163;28;45506;-59
2023/03/03 13:27:11;;;;;;;;;39.75;36.75;;;;;;;;5037236;28;45636;-58
2023/03/03 13:29:40;;;;;;;;;41.75;36.25;;;;;;;;5054853;28;45820;-58
2023/03/03 13:32:08;;;;;;;;;44.25;36.00;;;;;;;;5054994;28;45546;-55
2023/03/03 13:34:40;;;;;;;;;41.50;38.00;;;;;;;;5054730;28;45555;-58
2023/03/03 13:37:12;;;;;;;;;45.25;39.75;;;;;;;;5055162;28;45582;-53
2023/03/03 13:39:41;;;;;;;;;39.50;35.50;;;;;;;;5054931;28;45400;-55
2023/03/03 13:42:22;;;;;;;;;41.75;35.25;;;;;;;;5054696;28;47093;-52
2023/03/03 13:44:49;;;;;;;;;42.25;35.00;;;;;;;;5054902;28;45527;-52
2023/03/03 13:47:14;;;;;;;;;42.25;37.25;;;;;;;;5055138;28;46253;-58
2023/03/03 13:49:39;;;;;;;;;42.50;37.50;;;;;;;;5054951;28;45570;-56
2023/03/03 13:52:08;;;;;;;;;41.75;33.00;;;;;;;;5054474;28;46108;-54
2023/03/03 13:54:36;;;;;;;;;43.00;39.00;;;;;;;;5054637;28;45485;-51
2023/03/03 13:57:04;;;;;;;;;33.00;32.00;;;;;;;;5054778;28;45531;-59
2023/03/03 13:59:29;;;;;;;;;26.25;26.25;;;;;;;;5036737;28;45589;-58
2023/03/03 14:02:00;;;;;;;;;36.25;32.25;;;;;;;;5054512;28;45545;-55
2023/03/03 14:04:31;;;;;;;;;42.50;33.00;;;;;;;;5054472;28;45548;-58
2023/03/03 14:07:09;;;;;;;;;30.75;30.00;;;;;;;;5054432;28;45812;-59
2023/03/03 14:09:35;;;;;;;;;34.75;30.75;;;;;;;;5054709;28;45515;-54
2023/03/03 14:12:11;;;;;;;;;40.25;34.50;;;;;;;;5054154;28;46178;-58
2023/03/03 14:14:42;;;;;;;;;35.25;33.00;;;;;;;;5054377;28;46095;-54
2023/03/03 14:17:14;;;;;;;;;42.50;34.00;;;;;;;;5054518;28;45514;-59
2023/03/03 14:19:42;;;;;;;;;39.00;33.50;;;;;;;;5054566;28;45490;-59
2023/03/03 14:22:11;;;;;;;;;35.75;33.50;;;;;;;;5053971;28;46258;-56
2023/03/03 14:24:55;;;;;;;;;47.50;39.00;;;;;;;;5036005;28;45543;-55
2023/03/03 14:27:23;;;;;;;;;31.00;30.25;;;;;;;;5054377;28;45481;-56